Terminal Aerodrome Forecast
Issued by NWS Shreveport, LA

Home | Current Version | Previous Version | Text Only | Print | Product List | Glossary On
Versions: 1 2 3 4 5 6 7 8 9 10 11 12 13 14
000
FTUS44 KSHV 270540
TAFGGG
TAF
KGGG 270540Z 2706/2806 19012KT P6SM OVC015
      TEMPO 2709/2711 OVC007
     FM271600 20012G17KT P6SM BKN015
     FM272100 19014G21KT P6SM SCT025 BKN040
     FM280100 17013KT P6SM BKN040
     FM280500 18016G22KT P6SM BKN020=

USA.gov is the U.S. government's official web portal to all federal, state and local government web resources and services.